sensor_id;sensor_type;location;lat;lon;timestamp;pressure;altitude;pressure_sealevel;temperature;humidity
21449;BME280;10885;52.830;13.788;2022-12-07T06:03:02;100461.06;;;0.72;97.23
21449;BME280;10885;52.830;13.788;2022-12-07T06:08:05;100452.69;;;0.82;97.17
21449;BME280;10885;52.830;13.788;2022-12-07T06:13:08;100447.06;;;0.84;97.18
21449;BME280;10885;52.830;13.788;2022-12-07T06:18:10;100441.69;;;0.90;97.02
21449;BME280;10885;52.830;13.788;2022-12-07T06:23:15;100445.25;;;0.92;97.29
21449;BME280;10885;52.830;13.788;2022-12-07T06:28:17;100439.59;;;0.94;96.84
21449;BME280;10885;52.830;13.788;2022-12-07T06:33:20;100434.97;;;0.99;97.15
21449;BME280;10885;52.830;13.788;2022-12-07T06:38:22;100438.34;;;1.08;97.01
21449;BME280;10885;52.830;13.788;2022-12-07T06:43:24;100424.38;;;1.12;97.09
21449;BME280;10885;52.830;13.788;2022-12-07T06:48:26;100427.31;;;1.16;96.92
21449;BME280;10885;52.830;13.788;2022-12-07T06:53:29;100423.44;;;1.20;96.92
21449;BME280;10885;52.830;13.788;2022-12-07T06:58:31;100424.47;;;1.22;96.88
21449;BME280;10885;52.830;13.788;2022-12-07T07:03:33;100426.38;;;1.25;97.10
21449;BME280;10885;52.830;13.788;2022-12-07T07:08:36;100426.19;;;1.32;97.00
21449;BME280;10885;52.830;13.788;2022-12-07T07:13:39;100423.94;;;1.35;96.67
21449;BME280;10885;52.830;13.788;2022-12-07T07:18:41;100417.53;;;1.38;97.00
21449;BME280;10885;52.830;13.788;2022-12-07T07:23:43;100419.44;;;1.41;96.44
21449;BME280;10885;52.830;13.788;2022-12-07T07:28:45;100422.53;;;1.47;96.74
21449;BME280;10885;52.830;13.788;2022-12-07T07:33:48;100417.47;;;1.47;96.48
21449;BME280;10885;52.830;13.788;2022-12-07T07:38:50;100423.91;;;1.44;96.50
21449;BME280;10885;52.830;13.788;2022-12-07T07:43:52;100427.16;;;1.43;96.43
21449;BME280;10885;52.830;13.788;2022-12-07T07:48:54;100431.59;;;1.45;95.94
21449;BME280;10885;52.830;13.788;2022-12-07T07:53:57;100418.38;;;1.48;96.24
21449;BME280;10885;52.830;13.788;2022-12-07T07:58:59;100435.81;;;1.83;95.12
21449;BME280;10885;52.830;13.788;2022-12-07T08:04:01;100423.38;;;1.56;95.44
21449;BME280;10885;52.830;13.788;2022-12-07T08:09:03;100427.78;;;1.59;95.06
21449;BME280;10885;52.830;13.788;2022-12-07T08:14:07;100431.78;;;1.85;95.05
21449;BME280;10885;52.830;13.788;2022-12-07T08:19:10;100423.59;;;1.87;93.78
21449;BME280;10885;52.830;13.788;2022-12-07T08:24:12;100425.97;;;2.05;94.47
21449;BME280;10885;52.830;13.788;2022-12-07T08:29:14;100422.31;;;2.30;93.16
21449;BME280;10885;52.830;13.788;2022-12-07T08:34:16;100432.38;;;2.20;93.76
21449;BME280;10885;52.830;13.788;2022-12-07T08:39:19;100421.19;;;2.08;93.60
21449;BME280;10885;52.830;13.788;2022-12-07T08:44:32;100431.69;;;2.12;93.55
21449;BME280;10885;52.830;13.788;2022-12-07T08:49:41;100444.00;;;2.18;92.82
21449;BME280;10885;52.830;13.788;2022-12-07T08:54:44;100445.69;;;2.28;92.30
21449;BME280;10885;52.830;13.788;2022-12-07T08:59:47;100448.66;;;2.43;91.60
21449;BME280;10885;52.830;13.788;2022-12-07T09:04:49;100438.63;;;2.53;91.27
21449;BME280;10885;52.830;13.788;2022-12-07T09:09:51;100431.97;;;2.74;91.42
21449;BME280;10885;52.830;13.788;2022-12-07T09:14:53;100442.06;;;2.64;90.57
21449;BME280;10885;52.830;13.788;2022-12-07T09:19:56;100445.41;;;2.73;89.86
21449;BME280;10885;52.830;13.788;2022-12-07T09:24:58;100446.00;;;2.70;90.28
21449;BME280;10885;52.830;13.788;2022-12-07T09:30:01;100449.59;;;2.83;90.16
21449;BME280;10885;52.830;13.788;2022-12-07T09:35:05;100446.63;;;3.07;91.37
21449;BME280;10885;52.830;13.788;2022-12-07T09:40:07;100443.59;;;3.42;90.09
21449;BME280;10885;52.830;13.788;2022-12-07T09:45:17;100450.69;;;3.36;89.23
21449;BME280;10885;52.830;13.788;2022-12-07T09:50:23;100463.31;;;2.66;89.54
21449;BME280;10885;52.830;13.788;2022-12-07T09:55:28;100455.56;;;2.54;89.47
21449;BME280;10885;52.830;13.788;2022-12-07T10:00:31;100460.44;;;3.11;89.07
21449;BME280;10885;52.830;13.788;2022-12-07T10:05:40;100468.59;;;2.88;89.09
21449;BME280;10885;52.830;13.788;2022-12-07T10:10:44;100465.53;;;2.82;89.41
21449;BME280;10885;52.830;13.788;2022-12-07T10:15:48;100458.69;;;2.41;88.26
21449;BME280;10885;52.830;13.788;2022-12-07T10:21:10;100463.66;;;2.89;88.45
21449;BME280;10885;52.830;13.788;2022-12-07T10:31:23;100472.63;;;3.46;86.83
21449;BME280;10885;52.830;13.788;2022-12-07T10:36:36;100480.88;;;3.64;86.13
21449;BME280;10885;52.830;13.788;2022-12-07T10:57:22;100481.16;;;3.56;84.18
21449;BME280;10885;52.830;13.788;2022-12-07T11:07:51;100491.84;;;3.13;85.44
21449;BME280;10885;52.830;13.788;2022-12-07T11:13:11;100475.72;;;3.62;83.65
21449;BME280;10885;52.830;13.788;2022-12-07T11:39:04;100455.66;;;5.71;79.03
21449;BME280;10885;52.830;13.788;2022-12-07T11:54:45;100458.41;;;4.84;78.61
21449;BME280;10885;52.830;13.788;2022-12-07T11:59:52;100464.16;;;3.86;79.51
21449;BME280;10885;52.830;13.788;2022-12-07T12:04:59;100474.16;;;3.33;80.03
21449;BME280;10885;52.830;13.788;2022-12-07T12:10:18;100472.31;;;3.12;80.37
21449;BME280;10885;52.830;13.788;2022-12-07T12:20:48;100458.06;;;3.33;80.94
21449;BME280;10885;52.830;13.788;2022-12-07T12:25:54;100454.75;;;3.44;79.95
21449;BME280;10885;52.830;13.788;2022-12-07T12:36:24;100453.50;;;3.29;79.36
21449;BME280;10885;52.830;13.788;2022-12-07T12:57:37;100441.16;;;4.15;77.91
21449;BME280;10885;52.830;13.788;2022-12-07T13:07:51;100447.81;;;3.42;78.08
21449;BME280;10885;52.830;13.788;2022-12-07T13:28:52;100448.13;;;3.05;79.16
21449;BME280;10885;52.830;13.788;2022-12-07T13:34:38;100444.59;;;3.03;79.57
21449;BME280;10885;52.830;13.788;2022-12-07T13:39:52;100444.28;;;2.79;80.32
21449;BME280;10885;52.830;13.788;2022-12-07T13:44:56;100448.28;;;2.67;80.63
21449;BME280;10885;52.830;13.788;2022-12-07T13:49:58;100425.13;;;2.63;80.26
21449;BME280;10885;52.830;13.788;2022-12-07T13:55:14;100430.56;;;2.38;80.60
21449;BME280;10885;52.830;13.788;2022-12-07T14:00:19;100423.41;;;2.24;81.10
21449;BME280;10885;52.830;13.788;2022-12-07T14:10:33;100439.03;;;1.90;80.46
21449;BME280;10885;52.830;13.788;2022-12-07T14:15:36;100448.34;;;1.81;80.76
21449;BME280;10885;52.830;13.788;2022-12-07T14:20:40;100448.22;;;1.71;80.96
21449;BME280;10885;52.830;13.788;2022-12-07T14:25:48;100452.03;;;1.57;80.72
21449;BME280;10885;52.830;13.788;2022-12-07T14:30:52;100438.13;;;1.52;80.54
21449;BME280;10885;52.830;13.788;2022-12-07T14:35:55;100434.13;;;1.45;80.21
21449;BME280;10885;52.830;13.788;2022-12-07T14:41:00;100435.69;;;1.34;80.30
21449;BME280;10885;52.830;13.788;2022-12-07T14:46:20;100439.78;;;1.24;80.73
21449;BME280;10885;52.830;13.788;2022-12-07T14:51:23;100430.72;;;1.17;80.82
21449;BME280;10885;52.830;13.788;2022-12-07T14:56:46;100444.44;;;1.10;80.67
21449;BME280;10885;52.830;13.788;2022-12-07T15:01:51;100441.97;;;1.76;81.81
21449;BME280;10885;52.830;13.788;2022-12-07T15:06:58;100429.84;;;1.16;80.95
21449;BME280;10885;52.830;13.788;2022-12-07T15:12:00;100425.91;;;1.01;81.32
21449;BME280;10885;52.830;13.788;2022-12-07T15:17:03;100422.84;;;0.86;81.33
21449;BME280;10885;52.830;13.788;2022-12-07T15:22:12;100423.22;;;0.72;81.50
21449;BME280;10885;52.830;13.788;2022-12-07T15:27:15;100422.34;;;0.63;81.58
21449;BME280;10885;52.830;13.788;2022-12-07T15:32:17;100421.47;;;0.62;81.14
21449;BME280;10885;52.830;13.788;2022-12-07T15:37:19;100427.41;;;0.54;81.38
21449;BME280;10885;52.830;13.788;2022-12-07T15:42:21;100431.44;;;0.52;81.37
21449;BME280;10885;52.830;13.788;2022-12-07T15:47:23;100430.81;;;0.46;81.66
21449;BME280;10885;52.830;13.788;2022-12-07T15:52:26;100428.47;;;0.38;81.64
21449;BME280;10885;52.830;13.788;2022-12-07T15:57:29;100429.97;;;0.36;81.63
21449;BME280;10885;52.830;13.788;2022-12-07T16:02:32;100433.09;;;0.25;81.81
21449;BME280;10885;52.830;13.788;2022-12-07T16:07:42;100431.31;;;0.15;82.28
21449;BME280;10885;52.830;13.788;2022-12-07T16:12:48;100433.28;;;0.01;81.79
21449;BME280;10885;52.830;13.788;2022-12-07T16:17:51;100439.34;;;-0.06;82.35
21449;BME280;10885;52.830;13.788;2022-12-07T16:22:56;100443.34;;;-0.17;82.78
21449;BME280;10885;52.830;13.788;2022-12-07T16:27:58;100435.19;;;-0.23;83.04
21449;BME280;10885;52.830;13.788;2022-12-07T16:33:00;100440.22;;;-0.32;83.04
21449;BME280;10885;52.830;13.788;2022-12-07T16:38:03;100430.13;;;-0.41;82.77
21449;BME280;10885;52.830;13.788;2022-12-07T16:43:06;100439.28;;;-0.50;83.58
21449;BME280;10885;52.830;13.788;2022-12-07T16:48:08;100440.16;;;-0.58;84.17
21449;BME280;10885;52.830;13.788;2022-12-07T16:53:11;100444.75;;;-0.63;84.41
21449;BME280;10885;52.830;13.788;2022-12-07T16:58:14;100437.19;;;-0.63;84.72
21449;BME280;10885;52.830;13.788;2022-12-07T17:03:16;100438.53;;;-0.66;85.04
21449;BME280;10885;52.830;13.788;2022-12-07T17:08:21;100443.41;;;-0.68;85.80
21449;BME280;10885;52.830;13.788;2022-12-07T17:13:24;100447.25;;;-0.71;85.10
21449;BME280;10885;52.830;13.788;2022-12-07T17:18:45;100448.88;;;-0.72;85.98
21449;BME280;10885;52.830;13.788;2022-12-07T17:23:50;100455.81;;;-0.78;85.91
21449;BME280;10885;52.830;13.788;2022-12-07T17:28:53;100452.25;;;-0.80;86.21
21449;BME280;10885;52.830;13.788;2022-12-07T17:33:55;100450.06;;;-0.77;85.68
21449;BME280;10885;52.830;13.788;2022-12-07T17:38:58;100445.47;;;-0.81;85.66
21449;BME280;10885;52.830;13.788;2022-12-07T17:44:02;100441.03;;;-0.75;85.17
21449;BME280;10885;52.830;13.788;2022-12-07T17:49:07;100441.03;;;-0.75;85.09
21449;BME280;10885;52.830;13.788;2022-12-07T17:54:10;100436.72;;;-0.76;85.21
21449;BME280;10885;52.830;13.788;2022-12-07T17:59:13;100440.16;;;-0.75;85.05
21449;BME280;10885;52.830;13.788;2022-12-07T18:04:16;100449.91;;;-0.70;85.88
21449;BME280;10885;52.830;13.788;2022-12-07T18:09:18;100444.91;;;-0.61;85.41
21449;BME280;10885;52.830;13.788;2022-12-07T18:14:22;100451.00;;;-0.59;85.63
21449;BME280;10885;52.830;13.788;2022-12-07T18:19:24;100441.34;;;-0.63;86.19
21449;BME280;10885;52.830;13.788;2022-12-07T18:24:27;100438.38;;;-0.68;86.80
21449;BME280;10885;52.830;13.788;2022-12-07T18:29:37;100434.81;;;-0.70;86.80
21449;BME280;10885;52.830;13.788;2022-12-07T18:34:39;100439.13;;;-0.69;87.13
21449;BME280;10885;52.830;13.788;2022-12-07T18:39:42;100448.31;;;-0.69;87.11
21449;BME280;10885;52.830;13.788;2022-12-07T18:44:44;100462.03;;;-0.74;87.32
21449;BME280;10885;52.830;13.788;2022-12-07T18:49:46;100460.72;;;-0.79;86.62
21449;BME280;10885;52.830;13.788;2022-12-07T18:54:49;100460.72;;;-0.79;86.95
21449;BME280;10885;52.830;13.788;2022-12-07T18:59:51;100472.66;;;-0.86;87.02
21449;BME280;10885;52.830;13.788;2022-12-07T19:04:53;100464.97;;;-0.87;87.09
21449;BME280;10885;52.830;13.788;2022-12-07T19:09:55;100470.44;;;-0.91;86.75
21449;BME280;10885;52.830;13.788;2022-12-07T19:14:57;100471.91;;;-0.93;87.53
21449;BME280;10885;52.830;13.788;2022-12-07T19:20:01;100470.88;;;-0.95;87.70
21449;BME280;10885;52.830;13.788;2022-12-07T19:25:04;100469.81;;;-0.97;87.71
21449;BME280;10885;52.830;13.788;2022-12-07T19:30:07;100465.34;;;-1.00;87.45
21449;BME280;10885;52.830;13.788;2022-12-07T19:35:11;100474.09;;;-1.05;87.89
21449;BME280;10885;52.830;13.788;2022-12-07T19:40:13;100476.00;;;-1.03;89.09
21449;BME280;10885;52.830;13.788;2022-12-07T19:45:16;100474.09;;;-1.05;88.42
21449;BME280;10885;52.830;13.788;2022-12-07T19:50:18;100476.16;;;-1.01;89.13
21449;BME280;10885;52.830;13.788;2022-12-07T19:55:20;100478.19;;;-1.06;89.30
21449;BME280;10885;52.830;13.788;2022-12-07T20:00:22;100479.13;;;-1.05;89.42
21449;BME280;10885;52.830;13.788;2022-12-07T20:05:25;100482.47;;;-1.13;88.22
21449;BME280;10885;52.830;13.788;2022-12-07T20:10:27;100489.38;;;-1.20;88.07
21449;BME280;10885;52.830;13.788;2022-12-07T20:15:29;100487.69;;;-1.28;88.12
21449;BME280;10885;52.830;13.788;2022-12-07T20:20:31;100484.56;;;-1.34;88.50
21449;BME280;10885;52.830;13.788;2022-12-07T20:25:35;100485.16;;;-1.36;88.30
21449;BME280;10885;52.830;13.788;2022-12-07T20:30:45;100488.34;;;-1.46;88.42
21449;BME280;10885;52.830;13.788;2022-12-07T20:35:47;100494.59;;;-1.43;88.91
21449;BME280;10885;52.830;13.788;2022-12-07T20:40:50;100488.75;;;-1.50;88.51
21449;BME280;10885;52.830;13.788;2022-12-07T20:45:52;100489.75;;;-1.57;89.05
21449;BME280;10885;52.830;13.788;2022-12-07T20:51:04;100485.69;;;-1.64;88.89
21449;BME280;10885;52.830;13.788;2022-12-07T20:56:28;100488.47;;;-1.69;88.85
21449;BME280;10885;52.830;13.788;2022-12-07T21:01:29;100485.19;;;-1.77;88.37
21449;BME280;10885;52.830;13.788;2022-12-07T21:06:32;100500.34;;;-1.84;88.88
21449;BME280;10885;52.830;13.788;2022-12-07T21:11:34;100503.84;;;-1.91;88.54
21449;BME280;10885;52.830;13.788;2022-12-07T21:16:38;100502.78;;;-1.93;88.90
21449;BME280;10885;52.830;13.788;2022-12-07T21:21:41;100503.44;;;-1.87;88.90
21449;BME280;10885;52.830;13.788;2022-12-07T21:26:43;100497.75;;;-1.93;89.16
21449;BME280;10885;52.830;13.788;2022-12-07T21:31:45;100503.03;;;-1.98;89.14
21449;BME280;10885;52.830;13.788;2022-12-07T21:36:47;100511.84;;;-2.02;89.00
21449;BME280;10885;52.830;13.788;2022-12-07T21:41:50;100513.16;;;-2.06;89.09
21449;BME280;10885;52.830;13.788;2022-12-07T21:46:52;100519.00;;;-1.98;89.44
21449;BME280;10885;52.830;13.788;2022-12-07T21:51:55;100523.91;;;-1.34;89.40
21449;BME280;10885;52.830;13.788;2022-12-07T21:56:57;100515.91;;;-1.14;89.29
21449;BME280;10885;52.830;13.788;2022-12-07T22:01:59;100523.34;;;-1.07;88.76
21449;BME280;10885;52.830;13.788;2022-12-07T22:07:02;100528.16;;;-0.93;88.32
21449;BME280;10885;52.830;13.788;2022-12-07T22:12:04;100526.94;;;-0.96;88.39
21449;BME280;10885;52.830;13.788;2022-12-07T22:17:07;100522.53;;;-0.90;88.55
21449;BME280;10885;52.830;13.788;2022-12-07T22:22:13;100517.66;;;-0.89;88.79
21449;BME280;10885;52.830;13.788;2022-12-07T22:27:16;100513.00;;;-1.02;87.40
21449;BME280;10885;52.830;13.788;2022-12-07T22:32:19;100514.88;;;-1.08;88.24
21449;BME280;10885;52.830;13.788;2022-12-07T22:37:41;100509.53;;;-0.86;88.14
21449;BME280;10885;52.830;13.788;2022-12-07T22:42:43;100514.44;;;-0.79;87.88
